sensor_id;sensor_type;location;lat;lon;timestamp;temperature;humidity
34434;DHT22;34290;48.562;13.384;2022-12-29T00:01:39;-2.10;99.90
34434;DHT22;34290;48.562;13.384;2022-12-29T00:04:06;-2.10;99.90
34434;DHT22;34290;48.562;13.384;2022-12-29T00:06:33;-2.20;99.90
34434;DHT22;34290;48.562;13.384;2022-12-29T00:09:00;-2.10;99.90
34434;DHT22;34290;48.562;13.384;2022-12-29T00:11:27;-2.10;99.90
34434;DHT22;34290;48.562;13.384;2022-12-29T00:13:54;-2.10;99.90
34434;DHT22;34290;48.562;13.384;2022-12-29T00:16:42;-2.20;99.90
34434;DHT22;34290;48.562;13.384;2022-12-29T00:19:10;-2.20;99.90
34434;DHT22;34290;48.562;13.384;2022-12-29T00:21:58;-2.20;99.90
34434;DHT22;34290;48.562;13.384;2022-12-29T00:24:42;-2.20;99.90
34434;DHT22;34290;48.562;13.384;2022-12-29T00:27:28;-2.20;99.90
34434;DHT22;34290;48.562;13.384;2022-12-29T00:30:23;-2.30;99.90
34434;DHT22;34290;48.562;13.384;2022-12-29T00:33:12;-2.30;99.90
34434;DHT22;34290;48.562;13.384;2022-12-29T00:35:59;-2.30;99.90
34434;DHT22;34290;48.562;13.384;2022-12-29T00:38:28;-2.30;99.90
34434;DHT22;34290;48.562;13.384;2022-12-29T00:41:13;-2.30;99.90
34434;DHT22;34290;48.562;13.384;2022-12-29T00:43:57;-2.30;99.90
34434;DHT22;34290;48.562;13.384;2022-12-29T00:46:36;-2.30;99.90
34434;DHT22;34290;48.562;13.384;2022-12-29T00:49:06;-2.30;99.90
34434;DHT22;34290;48.562;13.384;2022-12-29T00:51:51;-2.30;99.90
34434;DHT22;34290;48.562;13.384;2022-12-29T00:54:18;-2.40;99.90
34434;DHT22;34290;48.562;13.384;2022-12-29T00:56:46;-2.30;99.90
34434;DHT22;34290;48.562;13.384;2022-12-29T00:59:13;-2.30;99.90
34434;DHT22;34290;48.562;13.384;2022-12-29T01:01:41;-2.30;99.90
34434;DHT22;34290;48.562;13.384;2022-12-29T01:04:10;-2.30;99.90
34434;DHT22;34290;48.562;13.384;2022-12-29T01:06:40;-2.30;99.90
34434;DHT22;34290;48.562;13.384;2022-12-29T01:09:10;-2.30;99.90
34434;DHT22;34290;48.562;13.384;2022-12-29T01:11:54;-2.30;99.90
34434;DHT22;34290;48.562;13.384;2022-12-29T01:14:23;-2.30;99.90
34434;DHT22;34290;48.562;13.384;2022-12-29T01:16:50;-2.30;99.90
34434;DHT22;34290;48.562;13.384;2022-12-29T01:19:21;-2.30;99.90
34434;DHT22;34290;48.562;13.384;2022-12-29T01:21:48;-2.40;99.90
34434;DHT22;34290;48.562;13.384;2022-12-29T01:24:16;-2.30;99.90
34434;DHT22;34290;48.562;13.384;2022-12-29T01:26:44;-2.40;99.90
34434;DHT22;34290;48.562;13.384;2022-12-29T01:29:11;-2.40;99.90
34434;DHT22;34290;48.562;13.384;2022-12-29T01:31:39;-2.40;99.90
34434;DHT22;34290;48.562;13.384;2022-12-29T01:34:06;-2.30;99.90
34434;DHT22;34290;48.562;13.384;2022-12-29T01:36:34;-2.40;99.90
34434;DHT22;34290;48.562;13.384;2022-12-29T01:39:01;-2.40;99.90
34434;DHT22;34290;48.562;13.384;2022-12-29T01:41:28;-2.40;99.90
34434;DHT22;34290;48.562;13.384;2022-12-29T01:43:57;-2.40;99.90
34434;DHT22;34290;48.562;13.384;2022-12-29T01:46:29;-2.40;99.90
34434;DHT22;34290;48.562;13.384;2022-12-29T01:49:02;-2.30;99.90
34434;DHT22;34290;48.562;13.384;2022-12-29T01:51:34;-2.20;99.90
34434;DHT22;34290;48.562;13.384;2022-12-29T01:54:04;-2.30;99.90
34434;DHT22;34290;48.562;13.384;2022-12-29T01:56:33;-2.30;99.90
34434;DHT22;34290;48.562;13.384;2022-12-29T01:59:02;-2.30;99.90
34434;DHT22;34290;48.562;13.384;2022-12-29T02:01:30;-2.40;99.90
34434;DHT22;34290;48.562;13.384;2022-12-29T02:03:58;-2.50;99.90
34434;DHT22;34290;48.562;13.384;2022-12-29T02:06:29;-2.50;99.90
34434;DHT22;34290;48.562;13.384;2022-12-29T02:08:59;-2.50;99.90
34434;DHT22;34290;48.562;13.384;2022-12-29T02:11:28;-2.50;99.90
34434;DHT22;34290;48.562;13.384;2022-12-29T02:13:55;-2.50;99.90
34434;DHT22;34290;48.562;13.384;2022-12-29T02:16:42;-2.50;99.90
34434;DHT22;34290;48.562;13.384;2022-12-29T02:22:22;-2.60;99.90
34434;DHT22;34290;48.562;13.384;2022-12-29T02:25:28;-2.60;99.90
34434;DHT22;34290;48.562;13.384;2022-12-29T02:28:17;-2.60;99.90
34434;DHT22;34290;48.562;13.384;2022-12-29T02:30:58;-2.70;99.90
34434;DHT22;34290;48.562;13.384;2022-12-29T02:33:37;-2.70;99.90
34434;DHT22;34290;48.562;13.384;2022-12-29T02:36:14;-2.70;99.90
34434;DHT22;34290;48.562;13.384;2022-12-29T02:38:56;-2.70;99.90
34434;DHT22;34290;48.562;13.384;2022-12-29T02:41:31;-2.70;99.90
34434;DHT22;34290;48.562;13.384;2022-12-29T02:44:04;-2.50;99.90
34434;DHT22;34290;48.562;13.384;2022-12-29T02:46:37;-2.50;99.90
34434;DHT22;34290;48.562;13.384;2022-12-29T02:49:11;-2.60;99.90
34434;DHT22;34290;48.562;13.384;2022-12-29T02:51:46;-2.60;99.90
34434;DHT22;34290;48.562;13.384;2022-12-29T02:54:17;-2.70;99.90
34434;DHT22;34290;48.562;13.384;2022-12-29T02:57:02;-2.80;99.90
34434;DHT22;34290;48.562;13.384;2022-12-29T02:59:29;-2.80;99.90
34434;DHT22;34290;48.562;13.384;2022-12-29T03:02:14;-2.80;99.90
34434;DHT22;34290;48.562;13.384;2022-12-29T03:05:12;-2.80;99.90
34434;DHT22;34290;48.562;13.384;2022-12-29T03:07:46;-2.90;99.90
34434;DHT22;34290;48.562;13.384;2022-12-29T03:10:25;-2.90;99.90
34434;DHT22;34290;48.562;13.384;2022-12-29T03:16:01;-2.90;99.90
34434;DHT22;34290;48.562;13.384;2022-12-29T03:18:39;-2.90;99.90
34434;DHT22;34290;48.562;13.384;2022-12-29T03:21:12;-3.00;99.90
34434;DHT22;34290;48.562;13.384;2022-12-29T03:23:41;-3.00;99.90
34434;DHT22;34290;48.562;13.384;2022-12-29T03:26:11;-3.00;99.90
34434;DHT22;34290;48.562;13.384;2022-12-29T03:28:42;-3.00;99.90
34434;DHT22;34290;48.562;13.384;2022-12-29T03:31:15;-3.00;99.90
34434;DHT22;34290;48.562;13.384;2022-12-29T03:33:45;-3.10;99.90
34434;DHT22;34290;48.562;13.384;2022-12-29T03:36:18;-2.90;99.90
34434;DHT22;34290;48.562;13.384;2022-12-29T03:38:50;-3.00;99.90
34434;DHT22;34290;48.562;13.384;2022-12-29T03:41:22;-3.00;99.90
34434;DHT22;34290;48.562;13.384;2022-12-29T03:43:50;-3.00;99.90
34434;DHT22;34290;48.562;13.384;2022-12-29T03:48:46;-3.10;99.90
34434;DHT22;34290;48.562;13.384;2022-12-29T03:51:13;-3.10;99.90
34434;DHT22;34290;48.562;13.384;2022-12-29T03:53:40;-3.20;99.90
34434;DHT22;34290;48.562;13.384;2022-12-29T03:56:07;-3.20;99.90
34434;DHT22;34290;48.562;13.384;2022-12-29T03:58:34;-3.20;99.90
34434;DHT22;34290;48.562;13.384;2022-12-29T04:01:01;-3.20;99.90
34434;DHT22;34290;48.562;13.384;2022-12-29T04:03:28;-3.20;99.90
34434;DHT22;34290;48.562;13.384;2022-12-29T04:05:56;-3.20;99.90
34434;DHT22;34290;48.562;13.384;2022-12-29T04:08:23;-3.20;99.90
34434;DHT22;34290;48.562;13.384;2022-12-29T04:10:50;-3.20;99.90
34434;DHT22;34290;48.562;13.384;2022-12-29T04:13:18;-3.20;99.90
34434;DHT22;34290;48.562;13.384;2022-12-29T04:15:45;-3.20;99.90
34434;DHT22;34290;48.562;13.384;2022-12-29T04:18:12;-3.10;99.90
34434;DHT22;34290;48.562;13.384;2022-12-29T04:23:25;-3.10;99.90
34434;DHT22;34290;48.562;13.384;2022-12-29T04:25:53;-3.00;99.90
34434;DHT22;34290;48.562;13.384;2022-12-29T04:28:20;-3.10;99.90
34434;DHT22;34290;48.562;13.384;2022-12-29T04:30:47;-3.00;99.90
34434;DHT22;34290;48.562;13.384;2022-12-29T04:33:14;-3.00;99.90
34434;DHT22;34290;48.562;13.384;2022-12-29T04:35:42;-3.00;99.90
34434;DHT22;34290;48.562;13.384;2022-12-29T04:38:09;-3.10;99.90
34434;DHT22;34290;48.562;13.384;2022-12-29T04:40:39;-3.00;99.90
34434;DHT22;34290;48.562;13.384;2022-12-29T04:43:06;-3.00;99.90
34434;DHT22;34290;48.562;13.384;2022-12-29T04:50:28;-2.90;99.90
34434;DHT22;34290;48.562;13.384;2022-12-29T04:55:22;-3.00;99.90
34434;DHT22;34290;48.562;13.384;2022-12-29T04:57:51;-2.90;99.90
34434;DHT22;34290;48.562;13.384;2022-12-29T05:00:18;-2.90;99.90
34434;DHT22;34290;48.562;13.384;2022-12-29T05:02:45;-2.80;99.90
34434;DHT22;34290;48.562;13.384;2022-12-29T05:05:12;-2.80;99.90
34434;DHT22;34290;48.562;13.384;2022-12-29T05:07:39;-2.80;99.90
34434;DHT22;34290;48.562;13.384;2022-12-29T05:10:07;-2.90;99.90
34434;DHT22;34290;48.562;13.384;2022-12-29T05:12:36;-2.90;99.90
34434;DHT22;34290;48.562;13.384;2022-12-29T05:15:07;-2.80;99.90
34434;DHT22;34290;48.562;13.384;2022-12-29T05:17:34;-2.80;99.90
34434;DHT22;34290;48.562;13.384;2022-12-29T05:20:01;-2.90;99.90
34434;DHT22;34290;48.562;13.384;2022-12-29T05:22:28;-2.80;99.90
34434;DHT22;34290;48.562;13.384;2022-12-29T05:24:55;-2.70;99.90
34434;DHT22;34290;48.562;13.384;2022-12-29T05:27:22;-2.70;99.90
34434;DHT22;34290;48.562;13.384;2022-12-29T05:29:49;-2.60;99.90
34434;DHT22;34290;48.562;13.384;2022-12-29T05:32:17;-2.60;99.90
34434;DHT22;34290;48.562;13.384;2022-12-29T05:34:44;-2.50;99.90
34434;DHT22;34290;48.562;13.384;2022-12-29T05:37:11;-2.40;99.90
34434;DHT22;34290;48.562;13.384;2022-12-29T05:39:38;-2.40;99.90
34434;DHT22;34290;48.562;13.384;2022-12-29T05:44:32;-2.30;99.90
34434;DHT22;34290;48.562;13.384;2022-12-29T05:46:59;-2.20;99.90
34434;DHT22;34290;48.562;13.384;2022-12-29T05:49:27;-2.20;99.90
34434;DHT22;34290;48.562;13.384;2022-12-29T05:51:55;-2.30;99.90
34434;DHT22;34290;48.562;13.384;2022-12-29T05:54:22;-2.30;99.90
34434;DHT22;34290;48.562;13.384;2022-12-29T05:56:49;-2.20;99.90
34434;DHT22;34290;48.562;13.384;2022-12-29T05:59:16;-2.10;99.90
34434;DHT22;34290;48.562;13.384;2022-12-29T06:01:43;-2.10;99.90
34434;DHT22;34290;48.562;13.384;2022-12-29T06:04:09;-2.00;99.90
34434;DHT22;34290;48.562;13.384;2022-12-29T06:06:38;-1.90;99.90
34434;DHT22;34290;48.562;13.384;2022-12-29T06:09:06;-1.90;99.90
34434;DHT22;34290;48.562;13.384;2022-12-29T06:11:32;-2.00;99.90
34434;DHT22;34290;48.562;13.384;2022-12-29T06:13:59;-2.00;99.90
34434;DHT22;34290;48.562;13.384;2022-12-29T06:16:26;-1.90;99.90
34434;DHT22;34290;48.562;13.384;2022-12-29T06:18:53;-1.90;99.90
34434;DHT22;34290;48.562;13.384;2022-12-29T06:21:20;-1.80;99.90
34434;DHT22;34290;48.562;13.384;2022-12-29T06:23:49;-1.70;99.90
34434;DHT22;34290;48.562;13.384;2022-12-29T06:26:16;-1.70;99.90
34434;DHT22;34290;48.562;13.384;2022-12-29T06:28:42;-1.80;99.90
34434;DHT22;34290;48.562;13.384;2022-12-29T06:31:10;-1.80;99.90
34434;DHT22;34290;48.562;13.384;2022-12-29T06:33:37;-1.70;99.90
34434;DHT22;34290;48.562;13.384;2022-12-29T06:36:04;-1.50;99.90
34434;DHT22;34290;48.562;13.384;2022-12-29T06:38:31;-1.50;99.90
34434;DHT22;34290;48.562;13.384;2022-12-29T06:41:00;-1.40;99.90
34434;DHT22;34290;48.562;13.384;2022-12-29T06:43:27;-1.30;99.90
34434;DHT22;34290;48.562;13.384;2022-12-29T06:45:55;-1.20;99.90
34434;DHT22;34290;48.562;13.384;2022-12-29T06:48:22;-1.10;99.90
34434;DHT22;34290;48.562;13.384;2022-12-29T06:50:49;-1.10;99.90
34434;DHT22;34290;48.562;13.384;2022-12-29T06:53:16;-1.00;99.90
34434;DHT22;34290;48.562;13.384;2022-12-29T06:55:43;-0.90;99.90
34434;DHT22;34290;48.562;13.384;2022-12-29T06:58:12;-0.80;99.90
34434;DHT22;34290;48.562;13.384;2022-12-29T07:00:38;-0.70;99.90
34434;DHT22;34290;48.562;13.384;2022-12-29T07:05:33;-0.60;99.90
34434;DHT22;34290;48.562;13.384;2022-12-29T07:08:00;-0.60;99.90
34434;DHT22;34290;48.562;13.384;2022-12-29T07:10:27;-0.60;99.90
34434;DHT22;34290;48.562;13.384;2022-12-29T07:12:54;-0.60;99.90
34434;DHT22;34290;48.562;13.384;2022-12-29T07:15:22;-0.60;99.90
34434;DHT22;34290;48.562;13.384;2022-12-29T07:22:44;-0.50;99.90
34434;DHT22;34290;48.562;13.384;2022-12-29T07:27:39;-0.60;99.90
34434;DHT22;34290;48.562;13.384;2022-12-29T07:30:07;-0.60;99.90
34434;DHT22;34290;48.562;13.384;2022-12-29T07:32:36;-0.60;99.90
34434;DHT22;34290;48.562;13.384;2022-12-29T07:35:03;-0.50;99.90
34434;DHT22;34290;48.562;13.384;2022-12-29T07:37:31;-0.50;99.90
34434;DHT22;34290;48.562;13.384;2022-12-29T07:39:58;-0.40;99.90
34434;DHT22;34290;48.562;13.384;2022-12-29T07:42:25;-0.40;99.90
34434;DHT22;34290;48.562;13.384;2022-12-29T07:44:52;-0.30;99.90
34434;DHT22;34290;48.562;13.384;2022-12-29T07:47:19;-0.30;99.90
34434;DHT22;34290;48.562;13.384;2022-12-29T07:49:47;-0.20;99.90
34434;DHT22;34290;48.562;13.384;2022-12-29T07:52:14;-0.20;99.90
34434;DHT22;34290;48.562;13.384;2022-12-29T07:57:08;-0.20;99.90
34434;DHT22;34290;48.562;13.384;2022-12-29T08:02:03;-0.10;99.90
34434;DHT22;34290;48.562;13.384;2022-12-29T08:04:30;-0.10;99.90
34434;DHT22;34290;48.562;13.384;2022-12-29T08:06:58;0.00;99.90
34434;DHT22;34290;48.562;13.384;2022-12-29T08:11:53;0.20;99.90
34434;DHT22;34290;48.562;13.384;2022-12-29T08:14:20;0.30;99.90
34434;DHT22;34290;48.562;13.384;2022-12-29T08:16:47;0.40;99.90
34434;DHT22;34290;48.562;13.384;2022-12-29T08:19:14;0.40;99.90
34434;DHT22;34290;48.562;13.384;2022-12-29T08:21:41;0.40;99.90
34434;DHT22;34290;48.562;13.384;2022-12-29T08:24:10;0.40;99.90
34434;DHT22;34290;48.562;13.384;2022-12-29T08:26:37;0.50;99.90
34434;DHT22;34290;48.562;13.384;2022-12-29T08:29:04;0.70;99.90
34434;DHT22;34290;48.562;13.384;2022-12-29T08:31:31;0.80;99.90
34434;DHT22;34290;48.562;13.384;2022-12-29T08:33:58;1.20;99.90
34434;DHT22;34290;48.562;13.384;2022-12-29T08:38:54;2.00;99.90
34434;DHT22;34290;48.562;13.384;2022-12-29T08:41:22;2.40;99.90
34434;DHT22;34290;48.562;13.384;2022-12-29T08:43:50;2.60;99.90
34434;DHT22;34290;48.562;13.384;2022-12-29T08:46:17;2.80;99.90
34434;DHT22;34290;48.562;13.384;2022-12-29T08:48:44;2.90;99.90
34434;DHT22;34290;48.562;13.384;2022-12-29T08:51:11;3.00;99.90
34434;DHT22;34290;48.562;13.384;2022-12-29T08:53:39;3.10;99.90
34434;DHT22;34290;48.562;13.384;2022-12-29T08:56:08;3.30;99.90
34434;DHT22;34290;48.562;13.384;2022-12-29T08:58:38;3.40;99.90
34434;DHT22;34290;48.562;13.384;2022-12-29T09:01:06;3.70;99.90
34434;DHT22;34290;48.562;13.384;2022-12-29T09:03:33;4.10;99.90
34434;DHT22;34290;48.562;13.384;2022-12-29T09:06:00;5.30;99.90
34434;DHT22;34290;48.562;13.384;2022-12-29T09:08:27;7.00;99.90
34434;DHT22;34290;48.562;13.384;2022-12-29T09:10:54;8.40;99.90
34434;DHT22;34290;48.562;13.384;2022-12-29T09:13:21;9.60;99.90
34434;DHT22;34290;48.562;13.384;2022-12-29T09:15:57;9.60;99.90
34434;DHT22;34290;48.562;13.384;2022-12-29T09:18:24;10.50;99.90
34434;DHT22;34290;48.562;13.384;2022-12-29T09:20:56;10.70;99.90
34434;DHT22;34290;48.562;13.384;2022-12-29T09:23:23;11.50;99.90
34434;DHT22;34290;48.562;13.384;2022-12-29T09:25:50;12.20;99.90
34434;DHT22;34290;48.562;13.384;2022-12-29T09:28:17;11.40;99.90
34434;DHT22;34290;48.562;13.384;2022-12-29T09:30:44;11.40;99.90
34434;DHT22;34290;48.562;13.384;2022-12-29T09:33:13;10.90;99.90
34434;DHT22;34290;48.562;13.384;2022-12-29T09:35:41;10.10;99.90
34434;DHT22;34290;48.562;13.384;2022-12-29T09:38:09;9.20;99.90
34434;DHT22;34290;48.562;13.384;2022-12-29T09:40:36;9.10;99.90
34434;DHT22;34290;48.562;13.384;2022-12-29T09:43:29;9.40;99.90
34434;DHT22;34290;48.562;13.384;2022-12-29T09:46:06;9.20;99.90
34434;DHT22;34290;48.562;13.384;2022-12-29T09:48:41;9.30;99.90
34434;DHT22;34290;48.562;13.384;2022-12-29T09:51:13;9.40;99.90
34434;DHT22;34290;48.562;13.384;2022-12-29T09:53:43;9.30;99.90
34434;DHT22;34290;48.562;13.384;2022-12-29T09:56:15;9.20;99.90
34434;DHT22;34290;48.562;13.384;2022-12-29T09:58:48;9.20;99.90
34434;DHT22;34290;48.562;13.384;2022-12-29T10:01:24;10.30;99.90
34434;DHT22;34290;48.562;13.384;2022-12-29T10:03:56;10.50;99.90
34434;DHT22;34290;48.562;13.384;2022-12-29T10:06:26;11.00;99.90
34434;DHT22;34290;48.562;13.384;2022-12-29T10:09:02;11.10;99.90
34434;DHT22;34290;48.562;13.384;2022-12-29T10:11:47;9.40;99.90
34434;DHT22;34290;48.562;13.384;2022-12-29T10:14:33;8.30;99.90
34434;DHT22;34290;48.562;13.384;2022-12-29T10:17:11;8.30;99.90
34434;DHT22;34290;48.562;13.384;2022-12-29T10:20:11;8.90;99.90
34434;DHT22;34290;48.562;13.384;2022-12-29T10:22:49;8.80;99.90
34434;DHT22;34290;48.562;13.384;2022-12-29T10:25:23;8.80;99.90
34434;DHT22;34290;48.562;13.384;2022-12-29T10:27:53;8.10;99.90
34434;DHT22;34290;48.562;13.384;2022-12-29T10:30:21;7.70;99.90
34434;DHT22;34290;48.562;13.384;2022-12-29T10:32:52;8.00;99.90
34434;DHT22;34290;48.562;13.384;2022-12-29T10:35:24;8.00;99.90
34434;DHT22;34290;48.562;13.384;2022-12-29T10:37:57;7.70;99.90
34434;DHT22;34290;48.562;13.384;2022-12-29T10:40:27;8.10;99.90
34434;DHT22;34290;48.562;13.384;2022-12-29T10:42:57;8.10;99.90
34434;DHT22;34290;48.562;13.384;2022-12-29T10:45:28;8.20;99.90
34434;DHT22;34290;48.562;13.384;2022-12-29T10:47:59;8.20;99.90
34434;DHT22;34290;48.562;13.384;2022-12-29T10:50:29;8.30;99.90
34434;DHT22;34290;48.562;13.384;2022-12-29T10:52:58;8.50;99.90
34434;DHT22;34290;48.562;13.384;2022-12-29T10:55:29;8.70;99.90
34434;DHT22;34290;48.562;13.384;2022-12-29T10:58:00;9.00;99.90
34434;DHT22;34290;48.562;13.384;2022-12-29T11:00:30;8.90;99.90
34434;DHT22;34290;48.562;13.384;2022-12-29T11:03:30;9.10;99.90
34434;DHT22;34290;48.562;13.384;2022-12-29T11:06:03;9.40;99.90
34434;DHT22;34290;48.562;13.384;2022-12-29T11:08:35;9.70;99.90
34434;DHT22;34290;48.562;13.384;2022-12-29T11:11:04;9.70;99.90
34434;DHT22;34290;48.562;13.384;2022-12-29T11:13:32;9.80;99.90
34434;DHT22;34290;48.562;13.384;2022-12-29T11:16:00;10.00;99.90
34434;DHT22;34290;48.562;13.384;2022-12-29T11:18:35;9.60;99.90
34434;DHT22;34290;48.562;13.384;2022-12-29T11:21:07;10.50;99.90
34434;DHT22;34290;48.562;13.384;2022-12-29T11:23:37;9.90;99.90
34434;DHT22;34290;48.562;13.384;2022-12-29T11:26:15;10.60;99.90
34434;DHT22;34290;48.562;13.384;2022-12-29T11:28:44;9.90;99.90
34434;DHT22;34290;48.562;13.384;2022-12-29T11:31:16;9.20;99.90
34434;DHT22;34290;48.562;13.384;2022-12-29T11:33:43;8.60;99.90
34434;DHT22;34290;48.562;13.384;2022-12-29T11:36:15;8.70;99.90
34434;DHT22;34290;48.562;13.384;2022-12-29T11:38:46;8.40;99.90
34434;DHT22;34290;48.562;13.384;2022-12-29T11:41:23;8.50;99.90
34434;DHT22;34290;48.562;13.384;2022-12-29T11:43:52;8.80;99.90
34434;DHT22;34290;48.562;13.384;2022-12-29T11:46:23;9.00;99.90
34434;DHT22;34290;48.562;13.384;2022-12-29T11:48:51;9.60;99.90
34434;DHT22;34290;48.562;13.384;2022-12-29T11:51:24;9.80;99.90
34434;DHT22;34290;48.562;13.384;2022-12-29T11:53:56;10.30;99.90
34434;DHT22;34290;48.562;13.384;2022-12-29T11:56:34;10.90;99.90
34434;DHT22;34290;48.562;13.384;2022-12-29T11:59:33;11.00;99.90
34434;DHT22;34290;48.562;13.384;2022-12-29T12:02:10;10.90;99.90
34434;DHT22;34290;48.562;13.384;2022-12-29T12:04:39;11.70;99.90
34434;DHT22;34290;48.562;13.384;2022-12-29T12:07:13;11.70;99.90
34434;DHT22;34290;48.562;13.384;2022-12-29T12:09:45;12.30;99.40
34434;DHT22;34290;48.562;13.384;2022-12-29T12:12:21;12.50;99.90
34434;DHT22;34290;48.562;13.384;2022-12-29T12:14:53;12.80;99.40
34434;DHT22;34290;48.562;13.384;2022-12-29T12:17:26;12.80;99.00
34434;DHT22;34290;48.562;13.384;2022-12-29T12:20:09;12.90;98.70
34434;DHT22;34290;48.562;13.384;2022-12-29T12:22:45;12.60;98.80
34434;DHT22;34290;48.562;13.384;2022-12-29T12:25:18;12.40;99.10
34434;DHT22;34290;48.562;13.384;2022-12-29T12:27:52;12.20;99.70
34434;DHT22;34290;48.562;13.384;2022-12-29T12:30:23;12.10;99.60
34434;DHT22;34290;48.562;13.384;2022-12-29T12:32:54;12.00;99.00
34434;DHT22;34290;48.562;13.384;2022-12-29T12:35:26;11.80;99.40
34434;DHT22;34290;48.562;13.384;2022-12-29T12:38:11;11.60;99.90
34434;DHT22;34290;48.562;13.384;2022-12-29T12:40:58;11.40;99.90
34434;DHT22;34290;48.562;13.384;2022-12-29T12:43:40;10.90;99.90
34434;DHT22;34290;48.562;13.384;2022-12-29T12:51:55;9.90;99.90
34434;DHT22;34290;48.562;13.384;2022-12-29T12:54:39;9.70;99.90
34434;DHT22;34290;48.562;13.384;2022-12-29T12:57:16;9.80;99.90
34434;DHT22;34290;48.562;13.384;2022-12-29T12:59:52;9.80;99.90
34434;DHT22;34290;48.562;13.384;2022-12-29T13:02:37;9.70;99.90
34434;DHT22;34290;48.562;13.384;2022-12-29T13:05:26;9.30;99.90
34434;DHT22;34290;48.562;13.384;2022-12-29T13:08:04;9.30;99.90
34434;DHT22;34290;48.562;13.384;2022-12-29T13:10:42;9.10;99.90
34434;DHT22;34290;48.562;13.384;2022-12-29T13:13:50;9.00;99.90
34434;DHT22;34290;48.562;13.384;2022-12-29T13:16:25;9.00;99.90
34434;DHT22;34290;48.562;13.384;2022-12-29T13:19:00;8.70;99.90
34434;DHT22;34290;48.562;13.384;2022-12-29T13:21:37;8.70;99.90
34434;DHT22;34290;48.562;13.384;2022-12-29T13:24:15;8.50;99.90
34434;DHT22;34290;48.562;13.384;2022-12-29T13:26:49;8.40;99.90
34434;DHT22;34290;48.562;13.384;2022-12-29T13:29:20;8.20;99.90
34434;DHT22;34290;48.562;13.384;2022-12-29T13:31:54;8.10;99.90
34434;DHT22;34290;48.562;13.384;2022-12-29T13:34:32;8.10;99.90
34434;DHT22;34290;48.562;13.384;2022-12-29T13:37:07;8.10;99.90
34434;DHT22;34290;48.562;13.384;2022-12-29T13:39:39;8.20;99.90
34434;DHT22;34290;48.562;13.384;2022-12-29T13:42:10;8.20;99.90
34434;DHT22;34290;48.562;13.384;2022-12-29T13:44:41;8.10;99.90
34434;DHT22;34290;48.562;13.384;2022-12-29T13:47:16;8.00;99.90
34434;DHT22;34290;48.562;13.384;2022-12-29T13:49:46;8.00;99.90
34434;DHT22;34290;48.562;13.384;2022-12-29T13:52:18;7.90;99.90
34434;DHT22;34290;48.562;13.384;2022-12-29T13:54:58;7.80;99.90
34434;DHT22;34290;48.562;13.384;2022-12-29T13:57:39;7.70;99.90
34434;DHT22;34290;48.562;13.384;2022-12-29T14:00:14;7.60;99.90
34434;DHT22;34290;48.562;13.384;2022-12-29T14:02:58;7.50;99.90
34434;DHT22;34290;48.562;13.384;2022-12-29T14:05:30;7.50;99.90
34434;DHT22;34290;48.562;13.384;2022-12-29T14:07:58;7.60;99.90
34434;DHT22;34290;48.562;13.384;2022-12-29T14:10:29;7.60;99.90
34434;DHT22;34290;48.562;13.384;2022-12-29T14:13:04;7.60;99.90
34434;DHT22;34290;48.562;13.384;2022-12-29T14:15:32;7.70;99.90
34434;DHT22;34290;48.562;13.384;2022-12-29T14:18:03;7.60;99.90
34434;DHT22;34290;48.562;13.384;2022-12-29T14:20:32;7.50;99.90
34434;DHT22;34290;48.562;13.384;2022-12-29T14:23:01;7.60;99.90
34434;DHT22;34290;48.562;13.384;2022-12-29T14:25:59;7.50;99.90
34434;DHT22;34290;48.562;13.384;2022-12-29T14:28:29;7.40;99.90
34434;DHT22;34290;48.562;13.384;2022-12-29T14:30:57;7.40;99.90
34434;DHT22;34290;48.562;13.384;2022-12-29T14:33:28;7.30;99.90
34434;DHT22;34290;48.562;13.384;2022-12-29T14:35:56;7.20;99.90
34434;DHT22;34290;48.562;13.384;2022-12-29T14:38:27;7.10;99.90
34434;DHT22;34290;48.562;13.384;2022-12-29T14:41:16;7.10;99.90
34434;DHT22;34290;48.562;13.384;2022-12-29T14:43:54;7.00;99.90
34434;DHT22;34290;48.562;13.384;2022-12-29T14:46:22;6.90;99.90
34434;DHT22;34290;48.562;13.384;2022-12-29T14:48:55;6.80;99.90
34434;DHT22;34290;48.562;13.384;2022-12-29T14:51:31;6.80;99.90
34434;DHT22;34290;48.562;13.384;2022-12-29T14:53:58;6.70;99.90
34434;DHT22;34290;48.562;13.384;2022-12-29T14:56:27;6.60;99.90
34434;DHT22;34290;48.562;13.384;2022-12-29T14:59:00;6.60;99.90
34434;DHT22;34290;48.562;13.384;2022-12-29T15:01:39;6.60;99.90
34434;DHT22;34290;48.562;13.384;2022-12-29T15:04:18;6.40;99.90
34434;DHT22;34290;48.562;13.384;2022-12-29T15:06:46;6.20;99.90
34434;DHT22;34290;48.562;13.384;2022-12-29T15:09:25;6.10;99.90
34434;DHT22;34290;48.562;13.384;2022-12-29T15:11:57;5.80;99.90
34434;DHT22;34290;48.562;13.384;2022-12-29T15:14:37;5.50;99.90
34434;DHT22;34290;48.562;13.384;2022-12-29T15:17:10;5.40;99.90
34434;DHT22;34290;48.562;13.384;2022-12-29T15:19:38;5.30;99.90
34434;DHT22;34290;48.562;13.384;2022-12-29T15:22:05;5.10;99.90
34434;DHT22;34290;48.562;13.384;2022-12-29T15:24:33;5.10;99.90
34434;DHT22;34290;48.562;13.384;2022-12-29T15:27:03;5.00;99.90
34434;DHT22;34290;48.562;13.384;2022-12-29T15:29:36;5.00;99.90
34434;DHT22;34290;48.562;13.384;2022-12-29T15:32:17;4.80;99.90
34434;DHT22;34290;48.562;13.384;2022-12-29T15:34:46;4.60;99.90
34434;DHT22;34290;48.562;13.384;2022-12-29T15:37:22;4.50;99.90
34434;DHT22;34290;48.562;13.384;2022-12-29T15:39:49;4.20;99.90
34434;DHT22;34290;48.562;13.384;2022-12-29T15:42:34;4.10;99.90
34434;DHT22;34290;48.562;13.384;2022-12-29T15:45:10;3.80;99.90
34434;DHT22;34290;48.562;13.384;2022-12-29T15:47:37;3.70;99.90
34434;DHT22;34290;48.562;13.384;2022-12-29T15:50:07;3.50;99.90
34434;DHT22;34290;48.562;13.384;2022-12-29T15:52:39;3.40;99.90
34434;DHT22;34290;48.562;13.384;2022-12-29T15:55:19;3.30;99.90
34434;DHT22;34290;48.562;13.384;2022-12-29T16:00:27;3.20;99.90
34434;DHT22;34290;48.562;13.384;2022-12-29T16:02:56;3.30;99.90
34434;DHT22;34290;48.562;13.384;2022-12-29T16:05:23;3.40;99.90
34434;DHT22;34290;48.562;13.384;2022-12-29T16:07:56;3.40;99.90
34434;DHT22;34290;48.562;13.384;2022-12-29T16:10:26;3.50;99.90
34434;DHT22;34290;48.562;13.384;2022-12-29T16:13:01;3.50;99.90
34434;DHT22;34290;48.562;13.384;2022-12-29T16:15:30;3.30;99.90
34434;DHT22;34290;48.562;13.384;2022-12-29T16:17:57;3.20;99.90
34434;DHT22;34290;48.562;13.384;2022-12-29T16:20:31;3.10;99.90
34434;DHT22;34290;48.562;13.384;2022-12-29T16:22:59;3.10;99.90
34434;DHT22;34290;48.562;13.384;2022-12-29T16:25:29;3.00;99.90
34434;DHT22;34290;48.562;13.384;2022-12-29T16:27:58;2.80;99.90
34434;DHT22;34290;48.562;13.384;2022-12-29T16:30:27;2.70;99.90
34434;DHT22;34290;48.562;13.384;2022-12-29T16:32:57;2.70;99.90
34434;DHT22;34290;48.562;13.384;2022-12-29T16:35:26;2.60;99.90
34434;DHT22;34290;48.562;13.384;2022-12-29T16:38:11;2.50;99.90
34434;DHT22;34290;48.562;13.384;2022-12-29T16:40:52;2.50;99.90